createdAt,value
2019-02-03T00:00:42.730Z,92.90
2019-02-03T00:01:42.840Z,82.30
2019-02-03T00:02:42.546Z,83.20
2019-02-03T00:03:42.462Z,80.50
2019-02-03T00:04:42.602Z,81.00
2019-02-03T00:05:42.286Z,77.30
2019-02-03T00:06:42.196Z,76.60
2019-02-03T00:07:42.371Z,79.80
2019-02-03T00:08:42.023Z,76.10
2019-02-03T00:09:41.964Z,76.00
2019-02-03T00:10:41.875Z,77.50
2019-02-03T00:11:41.759Z,78.70
2019-02-03T00:12:41.668Z,72.40
2019-02-03T00:13:41.592Z,74.80
2019-02-03T00:14:41.521Z,73.00
2019-02-03T00:15:41.412Z,75.30
2019-02-03T00:16:41.321Z,75.80
2019-02-03T00:17:41.415Z,74.60
2019-02-03T00:18:41.146Z,73.80
2019-02-03T00:19:41.079Z,75.10
2019-02-03T00:20:47.986Z,74.60
2019-02-03T00:21:40.881Z,73.00
2019-02-03T00:22:40.795Z,74.90
2019-02-03T00:23:40.727Z,72.30
2019-02-03T00:24:40.643Z,72.70
2019-02-03T00:25:55.494Z,71.90
2019-02-03T00:26:40.442Z,72.30
2019-02-03T00:27:40.457Z,72.20
2019-02-03T00:28:40.272Z,70.20
2019-02-03T00:29:40.338Z,72.40
2019-02-03T00:30:40.086Z,69.90
2019-02-03T00:31:47.040Z,71.20
2019-02-03T00:32:39.913Z,67.50
2019-02-03T00:33:39.887Z,68.10
2019-02-03T00:34:39.918Z,67.50
2019-02-03T00:35:39.697Z,63.60
2019-02-03T00:36:39.566Z,66.70
2019-02-03T00:37:39.502Z,67.10
2019-02-03T00:38:39.388Z,67.40
2019-02-03T00:39:39.393Z,64.80
2019-02-03T00:40:39.323Z,67.00
2019-02-03T00:41:39.179Z,64.90
2019-02-03T00:42:39.036Z,67.90
2019-02-03T00:43:40.978Z,62.70
2019-02-03T00:44:38.884Z,66.30
2019-02-03T00:45:38.837Z,64.20
2019-02-03T00:46:38.686Z,64.00
2019-02-03T00:47:38.654Z,64.90
2019-02-03T00:48:38.509Z,65.50
2019-02-03T00:49:38.449Z,66.30
2019-02-03T00:50:38.365Z,67.00
2019-02-03T00:51:38.245Z,66.20
2019-02-03T00:52:38.158Z,66.20
2019-02-03T00:53:38.180Z,66.40
2019-02-03T00:54:38.016Z,66.20
2019-02-03T00:55:37.892Z,66.90
2019-02-03T00:56:37.892Z,65.70
2019-02-03T00:57:37.730Z,67.10
2019-02-03T00:58:37.634Z,67.90
2019-02-03T00:59:38.675Z,66.10
2019-02-03T01:00:37.460Z,67.90
2019-02-03T01:01:37.373Z,67.70
2019-02-03T01:02:37.318Z,67.50
2019-02-03T01:03:37.193Z,67.40
2019-02-03T01:04:37.142Z,68.70
2019-02-03T01:05:37.032Z,67.30
2019-02-03T01:06:36.938Z,67.80
2019-02-03T01:07:36.944Z,67.60
2019-02-03T01:08:36.761Z,67.70
2019-02-03T01:09:36.695Z,69.10
2019-02-03T01:10:36.656Z,68.10
2019-02-03T01:11:36.489Z,68.40
2019-02-03T01:12:36.402Z,70.20
2019-02-03T01:13:36.373Z,72.10
2019-02-03T01:14:36.252Z,69.70
2019-02-03T01:15:36.185Z,70.20
2019-02-03T01:16:36.050Z,70.00
2019-02-03T01:17:35.999Z,70.10
2019-02-03T01:18:35.878Z,70.50
2019-02-03T01:19:35.845Z,72.20
2019-02-03T01:20:35.710Z,72.20
2019-02-03T01:21:35.715Z,69.80
2019-02-03T01:22:35.532Z,72.80
2019-02-03T01:23:35.442Z,69.50
2019-02-03T01:24:35.402Z,74.40
2019-02-03T01:25:35.261Z,74.80
2019-02-03T01:26:35.236Z,75.60
2019-02-03T01:27:35.080Z,74.70
2019-02-03T01:28:35.001Z,75.60
2019-02-03T01:29:34.950Z,74.20
2019-02-03T01:30:34.850Z,76.70
2019-02-03T01:31:34.767Z,78.30
2019-02-03T01:32:34.639Z,77.20
2019-02-03T01:33:34.570Z,77.80
2019-02-03T01:34:34.466Z,75.90
2019-02-03T01:35:34.402Z,77.50
2019-02-03T01:36:34.382Z,77.10
2019-02-03T01:37:39.721Z,75.40
2019-02-03T01:38:34.117Z,74.80
2019-02-03T01:39:34.099Z,75.30
2019-02-03T01:40:33.961Z,77.00
2019-02-03T01:41:33.908Z,73.60
2019-02-03T01:42:33.754Z,75.40
2019-02-03T01:43:33.714Z,75.60
2019-02-03T01:44:33.580Z,72.20
2019-02-03T01:45:33.521Z,74.00
2019-02-03T01:46:33.429Z,70.50
2019-02-03T01:47:33.317Z,70.90
2019-02-03T01:48:33.224Z,70.60
2019-02-03T01:49:33.247Z,70.90
2019-02-03T01:50:33.073Z,69.80
2019-02-03T01:51:34.997Z,69.10
2019-02-03T01:52:32.881Z,65.30
2019-02-03T01:53:32.862Z,49.10
2019-02-03T01:54:32.696Z,55.90
2019-02-03T01:55:32.710Z,59.70
2019-02-03T01:56:32.524Z,62.10
2019-02-03T01:57:32.487Z,58.50
2019-02-03T01:58:32.348Z,52.20
2019-02-03T01:59:32.296Z,59.80
2019-02-03T02:00:32.191Z,59.50
2019-02-03T02:01:32.099Z,62.20
2019-02-03T02:02:31.994Z,61.40
2019-02-03T02:03:32.014Z,61.30
2019-02-03T02:04:31.813Z,63.10
2019-02-03T02:05:31.831Z,62.20
2019-02-03T02:06:31.637Z,64.90
2019-02-03T02:07:31.589Z,62.90
2019-02-03T02:08:31.470Z,65.40
2019-02-03T02:09:31.398Z,65.90
2019-02-03T02:10:31.311Z,65.90
2019-02-03T02:11:31.412Z,64.60
2019-02-03T02:12:31.117Z,63.90
2019-02-03T02:13:31.219Z,65.50
2019-02-03T02:14:30.938Z,66.10
2019-02-03T02:15:30.869Z,66.40
2019-02-03T02:16:30.762Z,66.30
2019-02-03T02:17:30.669Z,67.70
2019-02-03T02:18:30.580Z,67.20
2019-02-03T02:19:30.642Z,69.40
2019-02-03T02:20:30.428Z,68.90
2019-02-03T02:21:30.316Z,67.80
2019-02-03T02:22:30.253Z,70.80
2019-02-03T02:23:30.137Z,73.30
2019-02-03T02:24:30.048Z,71.50
2019-02-03T02:25:30.108Z,72.30
2019-02-03T02:26:29.874Z,71.00
2019-02-03T02:27:29.880Z,74.40
2019-02-03T02:28:29.706Z,74.70
2019-02-03T02:29:29.685Z,75.40
2019-02-03T02:30:29.555Z,77.20
2019-02-03T02:31:29.496Z,77.00
2019-02-03T02:32:29.342Z,76.00
2019-02-03T02:33:29.300Z,77.50
2019-02-03T02:34:29.175Z,77.60
2019-02-03T02:35:29.108Z,77.80
2019-02-03T02:36:29.116Z,78.10
2019-02-03T02:37:28.906Z,80.10
2019-02-03T02:38:28.819Z,80.10
2019-02-03T02:39:28.930Z,82.30
2019-02-03T02:40:28.663Z,82.70
2019-02-03T02:41:28.743Z,83.40
2019-02-03T02:42:28.471Z,85.90
2019-02-03T02:43:28.548Z,85.50
2019-02-03T02:44:28.290Z,86.50
2019-02-03T02:45:28.398Z,91.20
2019-02-03T02:46:28.118Z,91.60
2019-02-03T02:47:28.164Z,91.30
2019-02-03T02:48:27.970Z,92.30
2019-02-03T02:49:27.974Z,92.90
2019-02-03T02:50:27.811Z,92.40
2019-02-03T02:51:27.674Z,90.90
2019-02-03T02:52:27.793Z,93.50
2019-02-03T02:53:27.499Z,94.30
2019-02-03T02:54:27.472Z,91.80
2019-02-03T02:55:27.447Z,93.90
2019-02-03T02:56:27.238Z,95.40
2019-02-03T02:57:27.142Z,95.40
2019-02-03T02:58:27.217Z,95.60
2019-02-03T02:59:26.968Z,94.40
2019-02-03T03:00:26.907Z,94.50
2019-02-03T03:01:26.869Z,96.70
2019-02-03T03:02:26.704Z,96.20
2019-02-03T03:03:26.626Z,94.70
2019-02-03T03:04:26.645Z,95.50
2019-02-03T03:05:26.445Z,96.30
2019-02-03T03:06:26.380Z,99.80
2019-02-03T03:07:26.453Z,95.60
2019-02-03T03:08:26.180Z,97.10
2019-02-03T03:09:26.266Z,96.10
2019-02-03T03:10:26.000Z,98.50
2019-02-03T03:11:26.115Z,96.40
2019-02-03T03:12:25.828Z,96.70
2019-02-03T03:13:25.882Z,97.00
2019-02-03T03:14:25.659Z,97.30
2019-02-03T03:15:25.574Z,96.50
2019-02-03T03:16:25.503Z,96.10
2019-02-03T03:17:25.497Z,95.70
2019-02-03T03:18:25.299Z,95.30
2019-02-03T03:19:25.306Z,94.60
2019-02-03T03:20:25.124Z,94.70
2019-02-03T03:21:25.067Z,94.20
2019-02-03T03:22:24.956Z,93.80
2019-02-03T03:23:24.925Z,92.80
2019-02-03T03:24:24.776Z,93.30
2019-02-03T03:25:24.730Z,92.20
2019-02-03T03:26:24.621Z,94.80
2019-02-03T03:27:24.543Z,93.00
2019-02-03T03:28:24.425Z,91.90
2019-02-03T03:29:24.565Z,91.60
2019-02-03T03:30:24.256Z,92.70
2019-02-03T03:31:24.187Z,90.30
2019-02-03T03:32:24.164Z,92.70
2019-02-03T03:33:23.984Z,92.10
2019-02-03T03:34:23.903Z,92.60
2019-02-03T03:35:23.978Z,91.00
2019-02-03T03:36:23.743Z,89.00
2019-02-03T03:37:23.632Z,88.80
2019-02-03T03:38:31.815Z,91.00
2019-02-03T03:39:23.461Z,90.40
2019-02-03T03:40:23.373Z,88.20
2019-02-03T03:41:23.443Z,89.60
2019-02-03T03:42:23.206Z,87.00
2019-02-03T03:43:23.110Z,89.50
2019-02-03T03:44:23.222Z,88.50
2019-02-03T03:45:22.932Z,88.50
2019-02-03T03:46:22.873Z,88.40
2019-02-03T03:47:22.827Z,89.20
2019-02-03T03:48:22.671Z,86.10
2019-02-03T03:49:22.579Z,88.40
2019-02-03T03:50:22.498Z,87.90
2019-02-03T03:51:22.434Z,89.10
2019-02-03T03:52:22.343Z,88.00
2019-02-03T03:53:22.254Z,87.00
2019-02-03T03:54:22.144Z,89.90
2019-02-03T03:55:22.055Z,88.40
2019-02-03T03:56:22.116Z,88.60
2019-02-03T03:57:21.888Z,88.80
2019-02-03T03:58:21.797Z,87.30
2019-02-03T03:59:21.881Z,88.20
2019-02-03T04:00:21.615Z,85.20
2019-02-03T04:01:21.550Z,86.60
2019-02-03T04:02:21.496Z,88.50
2019-02-03T04:03:21.351Z,86.30
2019-02-03T04:04:21.431Z,84.90
2019-02-03T04:05:21.178Z,85.10
2019-02-03T04:06:21.123Z,84.70
2019-02-03T04:07:21.115Z,86.40
2019-02-03T04:08:20.958Z,86.30
2019-02-03T04:09:20.834Z,85.70
2019-02-03T04:10:20.933Z,85.20
2019-02-03T04:11:20.680Z,84.70
2019-02-03T04:12:20.563Z,84.90
2019-02-03T04:13:20.548Z,85.70
2019-02-03T04:14:20.388Z,87.60
2019-02-03T04:15:20.307Z,84.30
2019-02-03T04:16:20.409Z,85.30
2019-02-03T04:17:20.130Z,84.60
2019-02-03T04:18:20.043Z,85.40
2019-02-03T04:19:19.974Z,84.50
2019-02-03T04:20:19.871Z,84.60
2019-02-03T04:21:19.814Z,83.90
2019-02-03T04:22:19.788Z,85.10
2019-02-03T04:23:19.598Z,85.40
2019-02-03T04:24:19.593Z,83.20
2019-02-03T04:25:19.430Z,83.00
2019-02-03T04:26:19.359Z,83.80
2019-02-03T04:27:19.407Z,85.40
2019-02-03T04:28:19.289Z,84.50
2019-02-03T04:29:19.077Z,84.60
2019-02-03T04:30:19.015Z,85.60
2019-02-03T04:31:18.924Z,85.40
2019-02-03T04:32:18.811Z,86.80
2019-02-03T04:33:18.835Z,85.60
2019-02-03T04:34:18.632Z,86.50
2019-02-03T04:35:18.555Z,85.30
2019-02-03T04:36:18.718Z,85.70
2019-02-03T04:37:18.370Z,85.90
2019-02-03T04:38:18.285Z,86.00
2019-02-03T04:39:18.258Z,85.70
2019-02-03T04:40:18.110Z,86.40
2019-02-03T04:41:18.050Z,87.20
2019-02-03T04:42:18.244Z,86.70
2019-02-03T04:43:17.846Z,84.80
2019-02-03T04:44:17.759Z,84.70
2019-02-03T04:45:17.889Z,84.80
2019-02-03T04:46:17.584Z,84.30
2019-02-03T04:47:17.527Z,84.60
2019-02-03T04:48:17.497Z,84.70
2019-02-03T04:49:17.386Z,84.70
2019-02-03T04:50:17.236Z,85.50
2019-02-03T04:51:17.313Z,83.90
2019-02-03T04:52:17.091Z,86.20
2019-02-03T04:53:17.119Z,84.30
2019-02-03T04:54:16.883Z,84.50
2019-02-03T04:55:16.934Z,86.40
2019-02-03T04:56:16.708Z,84.10
2019-02-03T04:57:16.648Z,84.60
2019-02-03T04:58:16.761Z,86.10
2019-02-03T04:59:16.451Z,84.20
2019-02-03T05:00:16.368Z,85.30
2019-02-03T05:01:16.357Z,84.10
2019-02-03T05:02:16.215Z,85.40
2019-02-03T05:03:16.162Z,83.90
2019-02-03T05:04:16.007Z,83.00
2019-02-03T05:05:15.990Z,85.70
2019-02-03T05:06:15.833Z,85.60
2019-02-03T05:07:15.771Z,86.80
2019-02-03T05:08:15.788Z,85.20
2019-02-03T05:09:15.575Z,84.70
2019-02-03T05:10:15.481Z,87.00
2019-02-03T05:11:15.608Z,85.00
2019-02-03T05:12:15.341Z,84.90
2019-02-03T05:13:15.409Z,87.00
2019-02-03T05:14:15.137Z,85.50
2019-02-03T05:15:15.245Z,85.40
2019-02-03T05:16:14.974Z,85.50
2019-02-03T05:17:14.909Z,86.80
2019-02-03T05:18:14.832Z,83.80
2019-02-03T05:19:14.692Z,85.00
2019-02-03T05:20:14.604Z,86.40
2019-02-03T05:21:14.649Z,84.90
2019-02-03T05:22:14.461Z,84.70
2019-02-03T05:23:14.342Z,86.30
2019-02-03T05:24:14.464Z,85.30
2019-02-03T05:25:14.169Z,85.80
2019-02-03T05:26:14.269Z,85.70
2019-02-03T05:27:14.026Z,85.80
2019-02-03T05:28:14.075Z,85.10
2019-02-03T05:29:13.818Z,85.60
2019-02-03T05:30:13.887Z,83.80
2019-02-03T05:31:13.644Z,85.10
2019-02-03T05:32:13.585Z,83.50
2019-02-03T05:33:13.500Z,84.10
2019-02-03T05:34:13.390Z,82.60
2019-02-03T05:35:13.312Z,81.90
2019-02-03T05:36:13.215Z,83.30
2019-02-03T05:37:13.147Z,82.60
2019-02-03T05:38:13.042Z,82.50
2019-02-03T05:39:24.344Z,81.80
2019-02-03T05:40:12.869Z,81.80
2019-02-03T05:41:12.777Z,82.00
2019-02-03T05:42:12.779Z,82.10
2019-02-03T05:43:12.592Z,82.20
2019-02-03T05:44:12.507Z,82.20
2019-02-03T05:45:12.561Z,80.80
2019-02-03T05:46:12.354Z,80.60
2019-02-03T05:47:12.251Z,79.30
2019-02-03T05:48:12.202Z,80.00
2019-02-03T05:49:12.212Z,81.70
2019-02-03T05:50:12.175Z,81.90
2019-02-03T05:51:11.896Z,78.50
2019-02-03T05:52:11.979Z,77.70
2019-02-03T05:53:11.743Z,79.60
2019-02-03T05:54:11.803Z,79.20
2019-02-03T05:55:11.543Z,79.40
2019-02-03T05:56:11.597Z,79.80
2019-02-03T05:57:11.374Z,78.90
2019-02-03T05:58:11.308Z,79.00
2019-02-03T05:59:11.208Z,78.20
2019-02-03T06:00:11.110Z,78.50
2019-02-03T06:01:11.014Z,78.30
2019-02-03T06:02:11.065Z,77.30
2019-02-03T06:03:10.866Z,81.00
2019-02-03T06:04:10.757Z,81.30
2019-02-03T06:05:10.839Z,83.00
2019-02-03T06:06:10.579Z,82.00
2019-02-03T06:07:10.499Z,82.10
2019-02-03T06:08:10.494Z,84.10
2019-02-03T06:09:10.317Z,82.30
2019-02-03T06:10:10.257Z,82.10
2019-02-03T06:11:10.146Z,83.30
2019-02-03T06:12:10.273Z,80.80
2019-02-03T06:13:09.989Z,81.50
2019-02-03T06:14:10.076Z,83.00
2019-02-03T06:15:09.798Z,80.50
2019-02-03T06:16:09.886Z,79.80
2019-02-03T06:17:09.620Z,79.70
2019-02-03T06:18:09.560Z,79.70
2019-02-03T06:19:09.499Z,77.90
2019-02-03T06:20:09.351Z,77.50
2019-02-03T06:21:09.263Z,78.50
2019-02-03T06:22:09.370Z,78.00
2019-02-03T06:23:09.113Z,76.50
2019-02-03T06:24:09.127Z,76.90
2019-02-03T06:25:08.924Z,76.50
2019-02-03T06:26:08.931Z,77.10
2019-02-03T06:27:08.736Z,76.10
2019-02-03T06:28:08.791Z,75.30
2019-02-03T06:29:08.566Z,75.80
2019-02-03T06:30:08.546Z,76.20
2019-02-03T06:31:08.387Z,73.80
2019-02-03T06:32:08.395Z,74.40
2019-02-03T06:33:08.243Z,72.60
2019-02-03T06:34:08.168Z,74.40
2019-02-03T06:35:08.036Z,75.40
2019-02-03T06:36:07.973Z,73.30
2019-02-03T06:37:07.861Z,73.50
2019-02-03T06:38:07.822Z,74.10
2019-02-03T06:39:07.686Z,72.10
2019-02-03T06:40:07.800Z,73.70
2019-02-03T06:41:07.516Z,73.30
2019-02-03T06:42:07.604Z,72.60
2019-02-03T06:43:07.361Z,73.20
2019-02-03T06:44:07.249Z,73.10
2019-02-03T06:45:07.214Z,73.00
2019-02-03T06:46:07.071Z,73.70
2019-02-03T06:47:06.992Z,74.30
2019-02-03T06:48:07.078Z,74.40
2019-02-03T06:49:06.811Z,74.60
2019-02-03T06:50:06.719Z,73.70
2019-02-03T06:51:06.842Z,74.40
2019-02-03T06:52:06.545Z,73.60
2019-02-03T06:53:06.484Z,72.20
2019-02-03T06:54:06.457Z,75.10
2019-02-03T06:55:06.284Z,73.80
2019-02-03T06:56:06.266Z,72.70
2019-02-03T06:57:06.105Z,74.00
2019-02-03T06:58:06.111Z,74.40
2019-02-03T06:59:05.953Z,74.60
2019-02-03T07:00:05.848Z,73.80
2019-02-03T07:01:05.884Z,74.40
2019-02-03T07:02:05.678Z,73.30
2019-02-03T07:03:05.575Z,76.40
2019-02-03T07:04:05.539Z,76.10
2019-02-03T07:05:05.398Z,75.50
2019-02-03T07:06:05.510Z,73.20
2019-02-03T07:07:05.231Z,76.30
2019-02-03T07:08:05.319Z,77.10
2019-02-03T07:09:05.081Z,73.90
2019-02-03T07:10:05.127Z,73.80
2019-02-03T07:11:04.872Z,76.00
2019-02-03T07:12:04.943Z,73.80
2019-02-03T07:13:04.695Z,75.80
2019-02-03T07:14:04.637Z,76.10
2019-02-03T07:15:04.547Z,76.80
2019-02-03T07:16:04.430Z,74.10
2019-02-03T07:17:04.342Z,75.70
2019-02-03T07:18:04.360Z,74.90
2019-02-03T07:19:04.188Z,76.10
2019-02-03T07:20:04.079Z,75.40
2019-02-03T07:21:04.177Z,74.20
2019-02-03T07:22:03.899Z,73.60
2019-02-03T07:23:03.812Z,73.10
2019-02-03T07:24:03.826Z,74.50
2019-02-03T07:25:03.645Z,72.30
2019-02-03T07:26:03.554Z,73.50
2019-02-03T07:27:03.597Z,72.00
2019-02-03T07:28:03.370Z,71.50
2019-02-03T07:29:03.317Z,70.10
2019-02-03T07:30:03.211Z,71.10
2019-02-03T07:31:03.111Z,69.90
2019-02-03T07:32:03.224Z,70.90
2019-02-03T07:33:02.926Z,70.00
2019-02-03T07:34:03.083Z,70.60
2019-02-03T07:35:02.750Z,69.40
2019-02-03T07:36:02.844Z,70.30
2019-02-03T07:37:02.576Z,69.90
2019-02-03T07:38:02.661Z,67.30
2019-02-03T07:39:02.428Z,67.70
2019-02-03T07:40:12.221Z,67.10
2019-02-03T07:41:02.261Z,68.10
2019-02-03T07:42:02.132Z,67.80
2019-02-03T07:43:02.044Z,66.90
2019-02-03T07:44:02.131Z,66.40
2019-02-03T07:45:01.876Z,66.60
2019-02-03T07:46:01.797Z,67.00
2019-02-03T07:47:01.889Z,64.40
2019-02-03T07:48:01.612Z,64.70
2019-02-03T07:49:01.546Z,66.20
2019-02-03T07:50:01.502Z,62.80
2019-02-03T07:51:01.354Z,64.20
2019-02-03T07:52:01.252Z,65.30
2019-02-03T07:53:01.331Z,62.80
2019-02-03T07:54:08.044Z,62.70
2019-02-03T07:55:00.987Z,62.50
2019-02-03T07:56:00.900Z,62.00
2019-02-03T07:57:00.934Z,62.10
2019-02-03T07:58:00.721Z,61.70
2019-02-03T07:59:00.666Z,60.00
2019-02-03T08:00:00.547Z,62.00
2019-02-03T08:01:00.547Z,61.80
2019-02-03T08:02:00.369Z,60.00
2019-02-03T08:03:00.377Z,61.10
2019-02-03T08:04:00.519Z,58.90
2019-02-03T08:05:00.198Z,58.60
2019-02-03T08:06:00.171Z,58.50
2019-02-03T08:06:59.937Z,57.80
2019-02-03T08:07:59.987Z,56.30
2019-02-03T08:08:59.787Z,56.80
2019-02-03T08:09:59.791Z,58.10
2019-02-03T08:10:59.576Z,56.90
2019-02-03T08:11:59.601Z,56.80
2019-02-03T08:12:59.409Z,57.00
2019-02-03T08:13:59.337Z,56.80
2019-02-03T08:14:59.410Z,54.60
2019-02-03T08:15:59.139Z,56.80
2019-02-03T08:16:59.053Z,56.00
2019-02-03T08:17:59.021Z,54.50
2019-02-03T08:18:58.906Z,53.40
2019-02-03T08:19:58.792Z,52.50
2019-02-03T08:20:58.838Z,53.50
2019-02-03T08:21:58.626Z,51.20
2019-02-03T08:22:58.534Z,51.30
2019-02-03T08:23:58.505Z,51.20
2019-02-03T08:24:58.350Z,50.10
2019-02-03T08:25:58.265Z,50.60
2019-02-03T08:26:58.350Z,50.40
2019-02-03T08:27:58.101Z,49.30
2019-02-03T08:28:58.052Z,44.80
2019-02-03T08:29:58.078Z,47.10
2019-02-03T08:30:57.829Z,45.90
2019-02-03T08:31:57.958Z,46.50
2019-02-03T08:32:57.651Z,43.80
2019-02-03T08:33:57.691Z,45.60
2019-02-03T08:34:57.503Z,46.60
2019-02-03T08:35:57.504Z,44.20
2019-02-03T08:36:57.312Z,46.40
2019-02-03T08:37:57.311Z,45.10
2019-02-03T08:38:57.133Z,43.10
2019-02-03T08:39:57.164Z,44.30
2019-02-03T08:40:56.978Z,43.30
2019-02-03T08:41:56.928Z,41.60
2019-02-03T08:42:56.785Z,43.40
2019-02-03T08:43:56.753Z,42.10
2019-02-03T08:44:56.636Z,42.00
2019-02-03T08:45:56.551Z,41.60
2019-02-03T08:46:56.446Z,41.70
2019-02-03T08:47:56.558Z,42.60
2019-02-03T08:48:56.273Z,40.10
2019-02-03T08:49:56.209Z,39.70
2019-02-03T08:50:56.101Z,39.50
2019-02-03T08:51:56.173Z,39.40
2019-02-03T08:52:55.912Z,39.10
2019-02-03T08:53:55.831Z,38.10
2019-02-03T08:54:58.246Z,34.20
2019-02-03T08:55:55.663Z,34.20
2019-02-03T08:56:55.573Z,35.80
2019-02-03T08:57:57.726Z,35.70
2019-02-03T08:58:55.403Z,34.20
2019-02-03T08:59:55.346Z,33.50
2019-02-03T09:00:55.428Z,33.50
2019-02-03T09:01:55.141Z,32.60
2019-02-03T09:02:55.051Z,32.40
2019-02-03T09:03:55.034Z,33.60
2019-02-03T09:04:54.929Z,33.40
2019-02-03T09:05:54.790Z,33.20
2019-02-03T09:06:57.521Z,32.80
2019-02-03T09:07:54.619Z,30.60
2019-02-03T09:08:54.650Z,32.00
2019-02-03T09:09:54.446Z,29.80
2019-02-03T09:10:54.391Z,30.70
2019-02-03T09:11:54.467Z,27.90
2019-02-03T09:12:54.198Z,27.70
2019-02-03T09:13:55.669Z,27.70
2019-02-03T09:14:54.063Z,25.20
2019-02-03T09:15:53.958Z,23.50
2019-02-03T09:16:53.884Z,23.60
2019-02-03T09:17:53.768Z,23.10
2019-02-03T09:18:53.674Z,23.70
2019-02-03T09:19:53.699Z,22.80
2019-02-03T09:20:55.982Z,23.30
2019-02-03T09:21:53.426Z,23.80
2019-02-03T09:22:53.375Z,22.80
2019-02-03T09:23:53.371Z,22.00
2019-02-03T09:24:53.175Z,21.70
2019-02-03T09:25:58.567Z,21.60
2019-02-03T09:26:52.992Z,21.60
2019-02-03T09:27:52.912Z,20.50
2019-02-03T09:28:52.905Z,20.00
2019-02-03T09:29:52.739Z,21.20
2019-02-03T09:30:52.684Z,20.60
2019-02-03T09:31:53.645Z,19.70
2019-02-03T09:32:52.486Z,19.80
2019-02-03T09:33:52.400Z,19.90
2019-02-03T09:34:52.369Z,19.20
2019-02-03T09:35:52.425Z,20.40
2019-02-03T09:36:52.146Z,19.60
2019-02-03T09:37:52.256Z,19.70
2019-02-03T09:38:51.981Z,19.70
2019-02-03T09:39:51.890Z,20.90
2019-02-03T09:40:59.744Z,20.40
2019-02-03T09:41:51.718Z,19.10
2019-02-03T09:42:51.639Z,18.70
2019-02-03T09:43:51.679Z,18.50
2019-02-03T09:44:51.463Z,18.50
2019-02-03T09:45:51.376Z,18.60
2019-02-03T09:46:51.342Z,18.80
2019-02-03T09:47:51.207Z,18.70
2019-02-03T09:48:51.303Z,18.30
2019-02-03T09:49:51.038Z,18.20
2019-02-03T09:50:50.953Z,18.70
2019-02-03T09:51:53.015Z,18.10
2019-02-03T09:52:50.792Z,18.60
2019-02-03T09:53:50.696Z,23.60
2019-02-03T09:54:50.736Z,19.80
2019-02-03T09:55:50.536Z,17.30
2019-02-03T09:56:50.583Z,15.70
2019-02-03T09:57:50.364Z,17.20
2019-02-03T09:58:50.474Z,19.20
2019-02-03T09:59:50.193Z,19.00
2019-02-03T10:00:50.108Z,15.70
2019-02-03T10:01:50.129Z,15.70
2019-02-03T10:02:49.943Z,16.60
2019-02-03T10:03:49.856Z,16.10
2019-02-03T10:04:49.902Z,15.10
2019-02-03T10:05:49.690Z,14.90
2019-02-03T10:06:49.710Z,16.60
2019-02-03T10:07:49.719Z,16.50
2019-02-03T10:08:49.437Z,15.20
2019-02-03T10:09:49.526Z,14.60
2019-02-03T10:10:49.267Z,13.70
2019-02-03T10:11:49.208Z,14.30
2019-02-03T10:12:49.133Z,14.20
2019-02-03T10:13:49.018Z,15.00
2019-02-03T10:14:48.935Z,13.50
2019-02-03T10:15:48.953Z,14.00
2019-02-03T10:16:48.805Z,13.80
2019-02-03T10:17:48.763Z,13.80
2019-02-03T10:18:48.599Z,12.60
2019-02-03T10:19:48.567Z,14.60
2019-02-03T10:20:48.441Z,12.90
2019-02-03T10:21:48.383Z,12.40
2019-02-03T10:22:48.384Z,12.40
2019-02-03T10:23:48.185Z,12.10
2019-02-03T10:24:48.099Z,12.40
2019-02-03T10:25:48.195Z,12.00
2019-02-03T10:26:47.956Z,12.10
2019-02-03T10:27:48.002Z,11.80
2019-02-03T10:28:47.774Z,12.10
2019-02-03T10:29:47.820Z,11.90
2019-02-03T10:30:47.602Z,11.40
2019-02-03T10:31:47.543Z,11.60
2019-02-03T10:32:47.628Z,12.70
2019-02-03T10:33:47.353Z,11.60
2019-02-03T10:34:47.266Z,11.50
2019-02-03T10:35:47.244Z,11.60
2019-02-03T10:36:47.243Z,11.70
2019-02-03T10:37:47.044Z,11.60
2019-02-03T10:38:46.935Z,11.00
2019-02-03T10:39:47.062Z,11.50
2019-02-03T10:40:46.768Z,11.10
2019-02-03T10:41:46.690Z,10.90
2019-02-03T10:42:46.711Z,11.90
2019-02-03T10:43:46.518Z,12.00
2019-02-03T10:44:46.440Z,11.10
2019-02-03T10:45:46.484Z,11.40
2019-02-03T10:46:46.272Z,11.20
2019-02-03T10:47:46.226Z,10.60
2019-02-03T10:48:46.299Z,9.90
2019-02-03T10:49:46.768Z,9.60
2019-02-03T10:50:45.948Z,10.90
2019-02-03T10:51:45.913Z,16.70
2019-02-03T10:52:45.803Z,26.20
2019-02-03T10:53:45.697Z,14.20
2019-02-03T10:54:45.734Z,13.20
2019-02-03T10:55:45.530Z,10.60
2019-02-03T10:56:45.445Z,9.10
2019-02-03T10:57:45.486Z,9.30
2019-02-03T10:58:45.276Z,8.50
2019-02-03T10:59:45.255Z,8.60
2019-02-03T11:00:45.109Z,8.70
2019-02-03T11:01:45.046Z,8.60
2019-02-03T11:02:44.995Z,8.30
2019-02-03T11:03:44.857Z,8.50
2019-02-03T11:04:44.778Z,8.90
2019-02-03T11:05:44.822Z,9.10
2019-02-03T11:06:44.611Z,9.40
2019-02-03T11:07:44.555Z,10.50
2019-02-03T11:08:44.486Z,10.90
2019-02-03T11:09:44.363Z,10.50
2019-02-03T11:10:44.451Z,10.20
2019-02-03T11:11:44.303Z,17.40
2019-02-03T11:12:44.141Z,11.10
2019-02-03T11:13:46.188Z,13.70
2019-02-03T11:14:43.947Z,12.60
2019-02-03T11:15:44.023Z,10.50
2019-02-03T11:16:43.785Z,8.50
2019-02-03T11:17:43.719Z,9.30
2019-02-03T11:18:43.630Z,8.00
2019-02-03T11:19:43.528Z,8.20
2019-02-03T11:20:43.447Z,7.80
2019-02-03T11:21:43.448Z,7.30
2019-02-03T11:22:43.313Z,11.90
2019-02-03T11:23:43.195Z,10.90
2019-02-03T11:24:44.313Z,7.20
2019-02-03T11:25:43.026Z,6.60
2019-02-03T11:26:42.948Z,6.70
2019-02-03T11:27:42.918Z,17.00
2019-02-03T11:28:42.776Z,178.70
2019-02-03T11:29:42.892Z,41.20
2019-02-03T11:30:42.609Z,48.50
2019-02-03T11:31:42.531Z,25.70
2019-02-03T11:32:42.501Z,55.70
2019-02-03T11:33:42.398Z,21.20
2019-02-03T11:34:42.285Z,10.90
2019-02-03T11:35:42.312Z,27.50
2019-02-03T11:36:46.963Z,14.70
2019-02-03T11:37:42.024Z,13.60
2019-02-03T11:38:42.179Z,13.00
2019-02-03T11:39:41.864Z,11.30
2019-02-03T11:40:41.916Z,13.20
2019-02-03T11:41:49.411Z,9.40
2019-02-03T11:42:41.604Z,9.30
2019-02-03T11:43:43.388Z,11.00
2019-02-03T11:44:41.550Z,11.40
2019-02-03T11:45:41.353Z,7.40
2019-02-03T11:46:41.269Z,7.20
2019-02-03T11:47:41.363Z,15.00
2019-02-03T11:48:41.131Z,12.20
2019-02-03T11:49:41.019Z,16.10
2019-02-03T11:50:41.023Z,11.00
2019-02-03T11:51:40.851Z,7.50
2019-02-03T11:52:40.772Z,6.70
2019-02-03T11:53:40.846Z,7.20
2019-02-03T11:54:40.612Z,9.20
2019-02-03T11:55:40.522Z,8.50
2019-02-03T11:56:40.613Z,6.90
2019-02-03T11:57:40.347Z,6.30
2019-02-03T11:58:40.400Z,5.60
2019-02-03T11:59:40.221Z,5.70
2019-02-03T12:00:40.102Z,6.20
2019-02-03T12:01:40.019Z,5.50
2019-02-03T12:02:41.959Z,5.40
2019-02-03T12:03:39.878Z,5.10
2019-02-03T12:04:39.768Z,5.40
2019-02-03T12:05:39.812Z,5.90
2019-02-03T12:06:39.604Z,5.30
2019-02-03T12:07:39.521Z,5.30
2019-02-03T12:08:39.498Z,5.40
2019-02-03T12:09:39.372Z,5.60
2019-02-03T12:10:39.286Z,5.80
2019-02-03T12:11:39.186Z,18.30
2019-02-03T12:12:39.115Z,6.10
2019-02-03T12:13:39.121Z,13.80
2019-02-03T12:14:38.934Z,7.00
2019-02-03T12:15:38.873Z,5.00
2019-02-03T12:16:38.901Z,5.10
2019-02-03T12:17:38.780Z,5.20
2019-02-03T12:18:38.625Z,4.80
2019-02-03T12:19:38.710Z,5.90
2019-02-03T12:20:38.435Z,16.00
2019-02-03T12:21:38.354Z,12.00
2019-02-03T12:22:38.324Z,7.90
2019-02-03T12:23:38.212Z,9.60
2019-02-03T12:24:38.101Z,8.20
2019-02-03T12:25:38.151Z,8.70
2019-02-03T12:26:37.933Z,5.40
2019-02-03T12:27:37.855Z,5.40
2019-02-03T12:28:38.002Z,4.60
2019-02-03T12:29:37.685Z,4.70
2019-02-03T12:30:37.761Z,4.90
2019-02-03T12:31:37.519Z,5.40
2019-02-03T12:32:37.443Z,4.60
2019-02-03T12:33:37.384Z,3.90
2019-02-03T12:34:37.298Z,4.10
2019-02-03T12:35:37.176Z,4.60
2019-02-03T12:36:39.953Z,4.30
2019-02-03T12:37:37.013Z,4.50
2019-02-03T12:38:36.929Z,4.20
2019-02-03T12:39:37.066Z,4.60
2019-02-03T12:40:36.764Z,4.90
2019-02-03T12:41:36.809Z,5.50
2019-02-03T12:42:36.599Z,5.20
2019-02-03T12:43:36.616Z,5.00
2019-02-03T12:44:36.456Z,5.00
2019-02-03T12:45:36.424Z,5.80
2019-02-03T12:46:38.796Z,5.10
2019-02-03T12:47:36.233Z,4.80
2019-02-03T12:48:36.098Z,5.10
2019-02-03T12:49:36.112Z,4.80
2019-02-03T12:50:35.943Z,4.40
2019-02-03T12:51:35.859Z,7.20
2019-02-03T12:52:35.765Z,14.50
2019-02-03T12:53:35.694Z,4.60
2019-02-03T12:54:35.714Z,30.40